Time;durP1;ratioP1;P1;durP2;ratioP2;P2;SDS_P1;SDS_P2;PMS_P1;PMS_P2;Temp;Humidity;BMP_temperature;BMP_pressure;BME280_temperature;BME280_humidity;BME280_pressure;Samples;Min_cycle;Max_cycle;Signal;HPM_P1;HPM_P2
2022/06/13 00:01:24;;;;;;;3.25;2.75;;;22.20;49.30;;;;;;4962237;28;20505;-82
2022/06/13 00:03:51;;;;;;;7.32;2.95;;;22.10;49.30;;;;;;4962123;28;20035;-82
2022/06/13 00:06:18;;;;;;;4.20;2.53;;;22.10;49.40;;;;;;4979575;28;20513;-82
2022/06/13 00:08:44;;;;;;;3.53;2.80;;;22.10;49.40;;;;;;4964523;28;20062;-81
2022/06/13 00:11:14;;;;;;;5.40;2.53;;;22.10;49.50;;;;;;4951612;28;20485;-82
2022/06/13 00:13:42;;;;;;;5.07;2.97;;;22.10;49.50;;;;;;4967485;28;20043;-82
2022/06/13 00:16:09;;;;;;;4.63;3.03;;;22.10;49.50;;;;;;4965347;28;20380;-82
2022/06/13 00:18:36;;;;;;;5.22;2.92;;;22.00;49.50;;;;;;4978183;28;20039;-82
2022/06/13 00:21:02;;;;;;;3.33;3.00;;;22.00;49.50;;;;;;4963661;28;20035;-82
2022/06/13 00:23:28;;;;;;;3.25;2.40;;;22.00;49.50;;;;;;4949923;28;20039;-82
2022/06/13 00:25:54;;;;;;;5.40;3.15;;;22.00;49.50;;;;;;4962472;28;20532;-82
2022/06/13 00:28:20;;;;;;;8.05;3.15;;;22.00;49.60;;;;;;4962710;28;20039;-83
2022/06/13 00:30:46;;;;;;;3.63;2.70;;;22.00;49.50;;;;;;4963224;28;20065;-82
2022/06/13 00:33:12;;;;;;;4.30;3.05;;;22.00;49.50;;;;;;4979014;28;20425;-82
2022/06/13 00:35:38;;;;;;;4.40;2.80;;;22.00;49.60;;;;;;4963398;28;20041;-82
2022/06/13 00:38:04;;;;;;;3.85;3.00;;;22.00;49.70;;;;;;4950321;28;20081;-83
2022/06/13 00:40:31;;;;;;;4.15;2.92;;;22.00;49.70;;;;;;4977685;28;20037;-82
2022/06/13 00:42:57;;;;;;;3.55;2.92;;;21.90;49.70;;;;;;4977213;28;20130;-83
2022/06/13 00:45:27;;;;;;;3.72;3.00;;;21.90;49.80;;;;;;4962139;28;20131;-82
2022/06/13 00:47:55;;;;;;;5.15;3.40;;;22.00;49.80;;;;;;4965585;28;20027;-83
2022/06/13 00:50:29;;;;;;;6.20;3.30;;;21.90;50.10;;;;;;4944624;28;20031;-82
2022/06/13 00:53:10;;;;;;;3.72;3.20;;;21.90;50.00;;;;;;4965436;28;20041;-82
2022/06/13 00:56:04;;;;;;;6.50;3.13;;;21.90;50.00;;;;;;4962532;28;20401;-83
2022/06/13 00:58:35;;;;;;;7.38;3.83;;;21.90;50.20;;;;;;4927181;28;20119;-82
2022/06/13 01:01:03;;;;;;;6.50;3.00;;;21.90;50.40;;;;;;4950696;28;20031;-83
2022/06/13 01:03:29;;;;;;;5.25;3.38;;;21.80;50.40;;;;;;4961606;28;20119;-83
2022/06/13 01:05:59;;;;;;;5.05;3.47;;;21.90;50.60;;;;;;4961768;28;20492;-83
2022/06/13 01:08:27;;;;;;;3.72;3.00;;;21.80;50.50;;;;;;4962599;28;20027;-83
2022/06/13 01:11:16;;;;;;;7.55;3.22;;;21.80;50.70;;;;;;4927325;28;20045;-83
2022/06/13 01:14:12;;;;;;;5.28;3.17;;;21.80;50.60;;;;;;4948520;28;20054;-82
2022/06/13 01:16:56;;;;;;;11.88;3.75;;;21.80;50.60;;;;;;4962166;28;20122;-82
2022/06/13 01:19:53;;;;;;;6.43;3.30;;;21.70;50.70;;;;;;4982282;28;20035;-83
2022/06/13 01:22:37;;;;;;;3.72;3.13;;;21.70;50.70;;;;;;4962520;28;20034;-83
2022/06/13 01:25:37;;;;;;;6.40;4.00;;;21.80;51.00;;;;;;4945794;28;20627;-83
2022/06/13 01:28:34;;;;;;;7.05;3.40;;;21.80;51.30;;;;;;4960417;28;20475;-82
2022/06/13 01:31:41;;;;;;;6.85;3.08;;;21.70;51.30;;;;;;4965071;28;20035;-83
2022/06/13 01:34:16;;;;;;;5.28;3.70;;;21.70;51.40;;;;;;4962360;28;20101;-82
2022/06/13 01:36:57;;;;;;;5.53;3.55;;;21.70;51.60;;;;;;4994913;28;20043;-82
2022/06/13 01:39:49;;;;;;;5.63;3.42;;;21.70;51.80;;;;;;4960711;28;20529;-82
2022/06/13 01:42:21;;;;;;;7.45;3.30;;;21.60;51.80;;;;;;4976220;28;20465;-82
2022/06/13 01:45:05;;;;;;;5.93;3.30;;;21.60;52.10;;;;;;4962802;28;20117;-82
2022/06/13 01:47:49;;;;;;;7.23;3.10;;;21.60;52.10;;;;;;4960895;28;20077;-82
2022/06/13 01:50:27;;;;;;;4.90;3.15;;;21.60;52.30;;;;;;4961558;28;20089;-82
2022/06/13 01:53:06;;;;;;;3.72;3.08;;;21.60;52.50;;;;;;4993339;28;20425;-82
2022/06/13 01:55:44;;;;;;;5.78;3.10;;;21.60;52.60;;;;;;4964464;28;20046;-83
2022/06/13 01:58:11;;;;;;;8.02;3.17;;;21.60;52.70;;;;;;4962131;28;20523;-83
2022/06/13 02:00:40;;;;;;;4.47;3.20;;;21.60;53.00;;;;;;4960926;28;20078;-83
2022/06/13 02:03:53;;;;;;;7.00;3.17;;;21.60;53.00;;;;;;4961057;28;20050;-83
2022/06/13 02:06:31;;;;;;;5.28;3.03;;;21.60;53.10;;;;;;4905710;29;20628;-83
2022/06/13 02:09:20;;;;;;;4.40;2.58;;;21.60;53.60;;;;;;4905934;29;20072;-82
2022/06/13 02:11:50;;;;;;;3.80;2.85;;;21.60;53.50;;;;;;4922732;29;20066;-83
2022/06/13 02:14:22;;;;;;;5.35;3.15;;;21.60;53.70;;;;;;4891182;29;20024;-82
2022/06/13 02:17:11;;;;;;;5.97;3.08;;;21.60;53.70;;;;;;4904305;29;20047;-83
2022/06/13 02:19:55;;;;;;;4.07;2.88;;;21.60;54.00;;;;;;4922009;29;20142;-83
2022/06/13 02:22:28;;;;;;;5.60;2.80;;;21.60;54.00;;;;;;4907253;29;20036;-82
2022/06/13 02:25:03;;;;;;;4.70;3.33;;;21.50;54.20;;;;;;4904659;29;20047;-82
2022/06/13 02:27:33;;;;;;;3.58;2.97;;;21.50;54.50;;;;;;4883412;29;20051;-82
2022/06/13 02:30:05;;;;;;;8.05;3.40;;;21.50;54.50;;;;;;4901834;29;20178;-82
2022/06/13 02:32:44;;;;;;;7.00;3.10;;;21.50;54.80;;;;;;4890809;29;20043;-82
2022/06/13 02:35:23;;;;;;;5.88;3.03;;;21.50;54.80;;;;;;4905940;29;20507;-82
2022/06/13 02:37:58;;;;;;;4.18;3.03;;;21.50;55.00;;;;;;4902455;29;20041;-82
2022/06/13 02:40:39;;;;;;;6.95;2.67;;;21.50;55.00;;;;;;4883768;29;20075;-82
2022/06/13 02:43:17;;;;;;;7.88;3.20;;;21.50;55.20;;;;;;4985443;28;20137;-83
2022/06/13 02:45:53;;;;;;;7.45;3.00;;;21.50;55.20;;;;;;4986971;28;20371;-82
2022/06/13 02:48:44;;;;;;;4.85;3.40;;;21.50;55.40;;;;;;5002407;28;20030;-82
2022/06/13 02:51:41;;;;;;;6.03;3.08;;;21.50;55.50;;;;;;4984224;28;20038;-82
2022/06/13 02:54:10;;;;;;;6.53;3.08;;;21.50;55.60;;;;;;4984772;28;20517;-82
2022/06/13 02:57:29;;;;;;;7.45;2.95;;;21.50;55.70;;;;;;4987798;28;20046;-82
2022/06/13 03:00:29;;;;;;;7.47;2.97;;;21.50;55.80;;;;;;4941945;28;20034;-82
2022/06/13 03:03:10;;;;;;;7.20;2.90;;;21.50;56.00;;;;;;4985622;28;20045;-82
2022/06/13 03:05:57;;;;;;;5.32;2.95;;;21.50;56.30;;;;;;4986938;28;20485;-83
2022/06/13 03:08:48;;;;;;;6.88;3.58;;;21.50;56.30;;;;;;5002813;28;20042;-82
2022/06/13 03:11:23;;;;;;;8.38;2.97;;;21.60;56.80;;;;;;4986030;28;20136;-82
2022/06/13 03:13:58;;;;;;;4.47;3.00;;;21.50;56.60;;;;;;4972993;28;20374;-82
2022/06/13 03:16:31;;;;;;;7.13;3.22;;;21.50;56.50;;;;;;4994549;28;20117;-82
2022/06/13 03:19:15;;;;;;;4.30;3.28;;;21.60;56.70;;;;;;4990537;28;21045;-83
2022/06/13 03:21:48;;;;;;;5.22;3.45;;;21.50;56.60;;;;;;4987298;28;20039;-83
2022/06/13 03:24:19;;;;;;;4.40;2.65;;;21.60;56.70;;;;;;5002138;28;20038;-83
2022/06/13 03:26:53;;;;;;;8.77;3.10;;;21.50;56.60;;;;;;5002792;28;20571;-83
2022/06/13 03:29:45;;;;;;;4.28;2.85;;;21.50;56.90;;;;;;4988258;28;20393;-83
2022/06/13 03:32:16;;;;;;;4.38;3.28;;;21.60;57.00;;;;;;4986055;28;20089;-82
2022/06/13 03:34:47;;;;;;;7.07;3.50;;;21.50;57.40;;;;;;5001363;28;20049;-83
2022/06/13 03:37:45;;;;;;;7.57;3.10;;;21.50;57.50;;;;;;5001169;28;20762;-83
2022/06/13 03:40:13;;;;;;;8.05;2.90;;;21.60;57.20;;;;;;4984282;28;20046;-83
2022/06/13 03:42:58;;;;;;;6.13;2.83;;;21.70;57.40;;;;;;4986072;28;20049;-83
2022/06/13 03:45:30;;;;;;;5.22;2.83;;;21.90;57.30;;;;;;4969669;28;20129;-83
2022/06/13 03:48:08;;;;;;;6.78;2.72;;;22.10;57.70;;;;;;5019527;28;20038;-83
2022/06/13 03:51:00;;;;;;;5.72;2.65;;;22.30;57.50;;;;;;5001260;28;20037;-83
2022/06/13 03:53:30;;;;;;;6.03;2.80;;;22.60;56.20;;;;;;4964603;28;20034;-83
2022/06/13 03:56:05;;;;;;;3.72;2.35;;;22.70;56.10;;;;;;4971323;28;20069;-83
2022/06/13 03:58:36;;;;;;;6.05;2.88;;;22.90;55.90;;;;;;4969386;28;20041;-83
2022/06/13 04:01:15;;;;;;;4.45;2.80;;;23.00;56.00;;;;;;4982419;28;20078;-83
2022/06/13 04:03:41;;;;;;;5.32;3.00;;;23.20;55.90;;;;;;4984276;28;20031;-83
2022/06/13 04:06:54;;;;;;;5.85;2.70;;;23.30;55.80;;;;;;4965853;28;20038;-83
2022/06/13 04:09:32;;;;;;;3.42;2.60;;;23.40;55.50;;;;;;4980463;28;20031;-83
2022/06/13 04:12:01;;;;;;;4.90;2.95;;;23.60;55.30;;;;;;4980576;28;20058;-83
2022/06/13 04:14:29;;;;;;;6.38;2.70;;;23.70;55.10;;;;;;4982650;28;20456;-83
2022/06/13 04:17:00;;;;;;;4.57;2.45;;;23.90;55.40;;;;;;4982975;28;20121;-83
2022/06/13 04:19:55;;;;;;;5.15;2.53;;;24.00;55.70;;;;;;4965639;28;20030;-83
2022/06/13 04:22:35;;;;;;;3.55;2.42;;;24.10;55.90;;;;;;4997214;28;20035;-83
2022/06/13 04:25:15;;;;;;;7.32;3.00;;;24.30;55.70;;;;;;4984455;28;20133;-83
2022/06/13 04:27:41;;;;;;;5.35;2.67;;;24.40;55.70;;;;;;4997840;28;20042;-83
2022/06/13 04:30:14;;;;;;;7.32;2.85;;;24.60;56.00;;;;;;4981561;28;20042;-83
2022/06/13 04:32:40;;;;;;;3.22;2.30;;;24.70;56.10;;;;;;4984030;28;20031;-83
2022/06/13 04:35:06;;;;;;;7.72;2.72;;;24.80;56.10;;;;;;4982017;28;20043;-83
2022/06/13 04:37:33;;;;;;;5.72;2.60;;;25.00;55.90;;;;;;4981431;28;20073;-83
2022/06/13 04:40:03;;;;;;;3.95;2.55;;;25.10;55.80;;;;;;4980857;28;20031;-83
2022/06/13 04:42:34;;;;;;;3.88;2.17;;;25.20;55.60;;;;;;4985670;28;20042;-84
2022/06/13 04:45:07;;;;;;;5.78;2.58;;;25.30;55.80;;;;;;4997609;28;20141;-83
2022/06/13 04:47:35;;;;;;;5.25;2.40;;;25.40;55.80;;;;;;4967812;28;21105;-83
2022/06/13 04:50:04;;;;;;;5.28;2.60;;;25.50;55.40;;;;;;4965054;28;20081;-83
2022/06/13 04:52:32;;;;;;;5.20;2.30;;;25.70;55.70;;;;;;4953222;28;20034;-83
2022/06/13 04:55:17;;;;;;;5.20;2.67;;;25.70;55.50;;;;;;4984768;28;20034;-82
2022/06/13 04:57:43;;;;;;;3.53;2.22;;;25.80;55.10;;;;;;4985033;28;20073;-83
2022/06/13 05:00:11;;;;;;;4.25;2.63;;;26.00;55.50;;;;;;4983649;28;20031;-83
2022/06/13 05:02:41;;;;;;;5.68;2.15;;;26.00;55.70;;;;;;4997764;28;20030;-83
2022/06/13 05:05:27;;;;;;;5.63;2.80;;;26.20;55.40;;;;;;4984209;28;20308;-83
2022/06/13 05:07:53;;;;;;;4.53;2.42;;;26.30;55.10;;;;;;4985158;28;20304;-82
2022/06/13 05:10:23;;;;;;;4.45;2.22;;;26.40;55.30;;;;;;4983703;28;20042;-83
2022/06/13 05:12:50;;;;;;;6.13;2.60;;;26.50;55.30;;;;;;4980851;28;20046;-83
2022/06/13 05:15:22;;;;;;;5.95;2.40;;;26.60;55.50;;;;;;4969546;28;20038;-83
2022/06/13 05:17:56;;;;;;;6.18;2.50;;;26.70;55.40;;;;;;4995645;28;20060;-83
2022/06/13 05:20:48;;;;;;;4.75;2.60;;;26.90;55.40;;;;;;4963713;28;20031;-83
2022/06/13 05:23:26;;;;;;;4.85;2.78;;;27.00;55.70;;;;;;4966372;28;20533;-83
2022/06/13 05:25:57;;;;;;;5.40;2.80;;;27.10;55.20;;;;;;4980902;28;20430;-83
2022/06/13 05:28:26;;;;;;;4.55;2.40;;;27.20;55.20;;;;;;4984889;28;20045;-83
2022/06/13 05:30:54;;;;;;;4.07;2.40;;;27.30;55.40;;;;;;4945078;28;20088;-83
2022/06/13 05:33:23;;;;;;;7.00;2.97;;;27.30;54.70;;;;;;4969088;28;20046;-83
2022/06/13 05:35:53;;;;;;;4.00;2.53;;;27.40;54.60;;;;;;4972679;28;20041;-84
2022/06/13 05:38:30;;;;;;;6.00;2.70;;;27.60;54.60;;;;;;4970000;28;20034;-83
2022/06/13 05:40:57;;;;;;;5.88;2.65;;;27.60;55.00;;;;;;4967139;28;20608;-83
2022/06/13 05:43:23;;;;;;;5.75;2.47;;;27.70;54.70;;;;;;4973552;28;20146;-83
2022/06/13 05:45:49;;;;;;;5.18;2.60;;;27.90;54.90;;;;;;4963345;28;20601;-83
2022/06/13 05:48:17;;;;;;;6.55;2.65;;;27.90;54.80;;;;;;4962745;28;20031;-83
2022/06/13 05:50:44;;;;;;;4.32;2.28;;;28.10;54.80;;;;;;4961976;28;20085;-83
2022/06/13 05:53:16;;;;;;;6.45;2.45;;;28.10;54.60;;;;;;4961169;28;20043;-83
2022/06/13 05:55:43;;;;;;;4.30;2.28;;;28.20;54.80;;;;;;4943187;28;20630;-83
2022/06/13 05:58:14;;;;;;;6.95;2.70;;;28.30;54.80;;;;;;4963071;28;20035;-84
2022/06/13 06:00:47;;;;;;;3.78;2.53;;;28.30;54.80;;;;;;4963287;28;20035;-83
2022/06/13 06:03:13;;;;;;;4.45;2.40;;;28.50;54.10;;;;;;4936804;28;20045;-83
2022/06/13 06:05:40;;;;;;;4.53;2.45;;;28.50;55.10;;;;;;4989010;28;20034;-83
2022/06/13 06:08:13;;;;;;;4.82;2.60;;;28.60;53.70;;;;;;4985652;28;20073;-83
2022/06/13 06:10:39;;;;;;;3.85;2.63;;;28.60;53.80;;;;;;4968292;28;20058;-83
2022/06/13 06:13:05;;;;;;;5.28;2.90;;;28.50;53.90;;;;;;4985464;28;20039;-83
2022/06/13 06:15:31;;;;;;;8.80;2.80;;;28.50;53.60;;;;;;4967440;28;20092;-83
2022/06/13 06:17:57;;;;;;;6.50;2.47;;;28.40;53.60;;;;;;4966822;28;20541;-84
2022/06/13 06:20:23;;;;;;;3.58;2.03;;;28.40;54.70;;;;;;4982735;28;20081;-83
2022/06/13 06:22:52;;;;;;;5.20;2.63;;;28.60;54.40;;;;;;5000544;28;20521;-83
2022/06/13 06:25:18;;;;;;;3.95;2.33;;;28.60;54.20;;;;;;4980958;28;20421;-83
2022/06/13 06:27:44;;;;;;;3.97;2.33;;;28.60;54.50;;;;;;4963832;28;20034;-83
2022/06/13 06:30:13;;;;;;;6.32;2.63;;;28.70;55.00;;;;;;4970045;28;20069;-83
2022/06/13 06:32:39;;;;;;;5.85;2.40;;;28.80;54.50;;;;;;4985502;28;20033;-83
2022/06/13 06:35:06;;;;;;;4.95;2.50;;;28.90;54.90;;;;;;4981660;28;20038;-82
2022/06/13 06:37:32;;;;;;;3.63;2.65;;;29.00;55.30;;;;;;4983968;28;20072;-83
2022/06/13 06:39:58;;;;;;;3.17;2.33;;;29.10;54.70;;;;;;4981650;28;20045;-83
2022/06/13 06:42:24;;;;;;;4.63;2.40;;;29.10;54.70;;;;;;4973904;28;20041;-83
2022/06/13 06:44:50;;;;;;;7.85;2.60;;;29.10;55.00;;;;;;4961566;28;20062;-83
2022/06/13 06:47:16;;;;;;;3.80;2.40;;;29.00;56.10;;;;;;4950452;28;20081;-83
2022/06/13 06:49:42;;;;;;;5.05;2.78;;;29.00;57.00;;;;;;4957909;28;20031;-83
2022/06/13 06:52:09;;;;;;;7.80;2.90;;;28.90;56.00;;;;;;4979580;28;20039;-83
2022/06/13 07:00:19;;;;;;;4.30;3.00;;;28.70;57.50;;;;;;4978887;28;20038;-83
2022/06/13 07:02:45;;;;;;;4.53;2.90;;;28.50;56.00;;;;;;4978761;28;20288;-83
2022/06/13 07:05:13;;;;;;;6.03;2.60;;;28.50;58.00;;;;;;4971776;28;20049;-83
2022/06/13 07:07:39;;;;;;;6.55;2.90;;;28.50;56.90;;;;;;4983386;28;20034;-83
2022/06/13 07:10:07;;;;;;;5.97;3.00;;;28.40;58.50;;;;;;4978475;28;20054;-83
2022/06/13 07:12:33;;;;;;;5.85;2.60;;;28.40;57.70;;;;;;4979917;28;20042;-83
2022/06/13 07:14:59;;;;;;;9.98;3.08;;;28.30;57.90;;;;;;4979066;28;20123;-83
2022/06/13 07:17:28;;;;;;;4.78;2.90;;;28.30;58.50;;;;;;4982242;28;20041;-83
2022/06/13 07:19:54;;;;;;;4.38;2.90;;;28.30;57.00;;;;;;5011218;28;20808;-83
2022/06/13 07:22:23;;;;;;;6.03;2.80;;;28.20;57.10;;;;;;4994307;28;20038;-83
2022/06/13 07:24:49;;;;;;;4.72;2.92;;;28.20;57.80;;;;;;4982014;28;20387;-83
2022/06/13 07:27:15;;;;;;;7.22;3.03;;;28.10;58.00;;;;;;4981094;28;20516;-83
2022/06/13 07:29:42;;;;;;;6.38;3.00;;;28.00;57.40;;;;;;4983060;28;20026;-83
2022/06/13 07:32:12;;;;;;;4.57;2.88;;;28.00;57.70;;;;;;4968824;28;20040;-83
2022/06/13 07:34:40;;;;;;;6.28;3.17;;;28.00;58.70;;;;;;4987342;28;20062;-83
2022/06/13 07:37:09;;;;;;;4.85;3.53;;;27.90;59.30;;;;;;4982900;28;20141;-83
2022/06/13 07:39:35;;;;;;;5.90;3.03;;;27.80;59.10;;;;;;4983438;28;20386;-83
2022/06/13 07:42:02;;;;;;;3.85;3.10;;;27.80;58.60;;;;;;4966898;28;20244;-83
2022/06/13 07:44:38;;;;;;;3.60;3.20;;;27.80;60.00;;;;;;4987155;28;20586;-83
2022/06/13 07:47:05;;;;;;;6.32;3.50;;;27.80;59.60;;;;;;4983486;28;20513;-83
2022/06/13 07:49:31;;;;;;;4.63;3.08;;;27.80;58.70;;;;;;4982912;28;20834;-82
2022/06/13 07:51:57;;;;;;;5.13;3.30;;;27.80;60.10;;;;;;5000097;28;20035;-82
2022/06/13 07:54:23;;;;;;;6.88;3.38;;;27.70;58.50;;;;;;4985413;28;20035;-82
2022/06/13 07:56:49;;;;;;;5.93;3.30;;;27.70;59.10;;;;;;4971365;28;20124;-82
2022/06/13 07:59:19;;;;;;;4.32;3.00;;;27.70;59.80;;;;;;4987025;28;20042;-82
2022/06/13 08:01:45;;;;;;;4.47;3.00;;;27.70;60.60;;;;;;5005279;28;20042;-83
2022/06/13 08:04:12;;;;;;;4.35;3.30;;;27.80;61.50;;;;;;4993052;28;20038;-83
2022/06/13 08:06:41;;;;;;;4.78;3.05;;;27.70;60.40;;;;;;4985070;28;20038;-83
2022/06/13 08:09:08;;;;;;;6.28;3.25;;;27.70;60.70;;;;;;5001791;28;20046;-82
2022/06/13 08:11:37;;;;;;;10.18;3.03;;;27.80;61.80;;;;;;4997750;28;20031;-83
2022/06/13 08:14:06;;;;;;;4.05;3.05;;;27.90;61.80;;;;;;5009418;28;20586;-83
2022/06/13 08:16:34;;;;;;;5.68;3.60;;;27.90;61.00;;;;;;4967642;28;20129;-83
2022/06/13 08:19:04;;;;;;;5.93;2.63;;;27.90;62.00;;;;;;4984708;28;20035;-83
2022/06/13 08:21:32;;;;;;;2.85;2.65;;;27.90;61.40;;;;;;4954961;28;20030;-84
2022/06/13 08:23:58;;;;;;;4.07;2.90;;;27.90;61.20;;;;;;4955175;28;20501;-83
2022/06/13 08:26:24;;;;;;;6.50;2.90;;;27.90;61.90;;;;;;4985830;28;20391;-83
2022/06/13 08:28:50;;;;;;;4.80;2.80;;;27.90;61.20;;;;;;4983658;28;20042;-83
2022/06/13 08:31:20;;;;;;;5.40;2.40;;;27.90;60.00;;;;;;4982804;28;20039;-83
2022/06/13 08:33:46;;;;;;;3.90;2.33;;;27.80;58.20;;;;;;4983154;28;20035;-82
2022/06/13 08:36:13;;;;;;;5.82;3.30;;;27.80;57.40;;;;;;4978570;28;20046;-82
2022/06/13 08:38:39;;;;;;;4.25;2.70;;;27.70;57.50;;;;;;4970654;28;20625;-83
2022/06/13 08:41:12;;;;;;;4.40;2.60;;;27.70;57.30;;;;;;4984732;28;20046;-82
2022/06/13 08:44:15;;;;;;;5.85;2.60;;;27.60;59.70;;;;;;4968441;28;20046;-85
2022/06/13 08:46:58;;;;;;;3.58;2.50;;;27.60;55.70;;;;;;4983826;28;20031;-83
2022/06/13 08:49:30;;;;;;;3.47;2.85;;;27.50;56.00;;;;;;4987143;28;20035;-83
2022/06/13 08:52:25;;;;;;;4.50;2.42;;;27.40;58.00;;;;;;4983614;28;20030;-83
2022/06/13 08:55:20;;;;;;;3.30;2.28;;;27.30;56.70;;;;;;4938279;28;20157;-83
2022/06/13 08:58:19;;;;;;;2.73;2.27;;;27.30;56.10;;;;;;4954655;28;20038;-83
2022/06/13 09:00:56;;;;;;;2.85;2.33;;;27.20;57.90;;;;;;4936691;28;20050;-84
2022/06/13 09:04:01;;;;;;;4.75;2.42;;;27.20;55.30;;;;;;4936091;28;20043;-83
2022/06/13 09:06:44;;;;;;;2.22;2.13;;;27.10;57.00;;;;;;4947672;28;20078;-85
2022/06/13 09:09:31;;;;;;;3.40;2.17;;;27.10;56.70;;;;;;4936357;28;20143;-83
2022/06/13 09:12:07;;;;;;;4.47;2.75;;;27.10;57.10;;;;;;4943903;28;20195;-83
2022/06/13 09:14:33;;;;;;;5.45;2.15;;;27.10;56.40;;;;;;4950104;28;20106;-84
2022/06/13 09:17:35;;;;;;;5.00;2.30;;;27.00;56.60;;;;;;4931794;28;20521;-84
2022/06/13 09:20:15;;;;;;;4.05;2.33;;;27.10;58.20;;;;;;4949212;28;20027;-83
2022/06/13 09:23:09;;;;;;;2.85;2.50;;;27.00;57.70;;;;;;4949151;28;20129;-84
2022/06/13 09:26:06;;;;;;;2.50;2.30;;;26.90;58.50;;;;;;4948859;28;21205;-84
2022/06/13 09:28:54;;;;;;;4.88;2.70;;;26.90;57.40;;;;;;4947800;28;20047;-84
2022/06/13 09:31:43;;;;;;;6.03;2.72;;;26.90;57.70;;;;;;4965851;28;20031;-84
2022/06/13 09:34:18;;;;;;;3.70;2.30;;;26.80;56.00;;;;;;4982159;28;20042;-83
2022/06/13 09:37:09;;;;;;;3.38;2.60;;;26.80;57.40;;;;;;4996883;28;20050;-84
2022/06/13 09:39:36;;;;;;;2.88;2.40;;;26.80;57.80;;;;;;4981418;28;20093;-84
2022/06/13 09:42:44;;;;;;;5.60;2.65;;;26.80;58.40;;;;;;4980632;28;20034;-84
2022/06/13 09:45:10;;;;;;;4.63;2.60;;;26.80;58.00;;;;;;4952036;28;20184;-84
2022/06/13 09:47:58;;;;;;;2.67;2.47;;;26.80;59.70;;;;;;4949259;28;20038;-83
2022/06/13 09:50:43;;;;;;;6.03;2.30;;;26.90;57.90;;;;;;4996578;28;20077;-83
2022/06/13 09:53:36;;;;;;;3.22;2.63;;;26.90;57.70;;;;;;4981998;28;20031;-83
2022/06/13 09:56:10;;;;;;;6.60;2.40;;;26.80;56.70;;;;;;4968604;28;20049;-83
2022/06/13 09:58:37;;;;;;;3.63;2.55;;;26.80;58.60;;;;;;4997054;28;20061;-84
2022/06/13 10:01:43;;;;;;;3.17;2.33;;;26.80;58.00;;;;;;4981603;28;20034;-84
2022/06/13 10:04:51;;;;;;;4.57;2.47;;;26.80;57.00;;;;;;4912009;29;20086;-84
2022/06/13 10:07:22;;;;;;;3.53;2.20;;;26.80;59.40;;;;;;4929685;29;20039;-83
2022/06/13 10:10:02;;;;;;;3.08;2.50;;;26.70;58.20;;;;;;4945537;29;20085;-84
2022/06/13 10:12:45;;;;;;;2.45;2.25;;;26.70;58.10;;;;;;4945385;29;20042;-84
2022/06/13 10:15:19;;;;;;;3.45;2.22;;;26.70;58.00;;;;;;4928510;29;20039;-82
2022/06/13 10:17:54;;;;;;;2.90;2.20;;;26.70;58.60;;;;;;4926374;29;20042;-85
2022/06/13 10:20:41;;;;;;;5.03;2.65;;;26.70;57.70;;;;;;4929549;29;20062;-84
2022/06/13 10:23:35;;;;;;;2.92;2.35;;;26.70;57.90;;;;;;4929908;29;20093;-83
2022/06/13 10:26:16;;;;;;;3.08;2.22;;;26.60;58.00;;;;;;4928943;29;20071;-83
2022/06/13 10:29:14;;;;;;;3.35;2.30;;;26.50;57.90;;;;;;4945781;28;20035;-83
2022/06/13 10:32:11;;;;;;;3.45;2.45;;;26.50;57.90;;;;;;4918436;29;20046;-83
2022/06/13 10:35:18;;;;;;;2.67;2.33;;;26.50;58.70;;;;;;4945099;28;20050;-83
2022/06/13 10:37:56;;;;;;;5.57;2.60;;;26.50;58.50;;;;;;4911500;29;20114;-83
2022/06/13 10:40:23;;;;;;;3.10;2.90;;;26.40;58.50;;;;;;4952062;28;20042;-83
2022/06/13 10:42:49;;;;;;;4.85;2.72;;;26.40;59.90;;;;;;4978283;28;20039;-83
2022/06/13 10:45:17;;;;;;;3.80;2.70;;;26.40;61.10;;;;;;4968960;28;20529;-83
2022/06/13 10:47:51;;;;;;;5.93;2.78;;;26.30;62.20;;;;;;4981630;28;20561;-83
2022/06/13 10:50:45;;;;;;;3.65;3.03;;;26.40;62.70;;;;;;4963907;28;20042;-83
2022/06/13 10:53:43;;;;;;;6.70;2.93;;;26.30;63.50;;;;;;4944652;28;20055;-82
2022/06/13 10:56:20;;;;;;;4.65;3.10;;;26.30;63.20;;;;;;4942658;28;20057;-83
2022/06/13 10:58:56;;;;;;;6.43;2.85;;;26.30;63.30;;;;;;4949019;28;20042;-82
2022/06/13 11:01:29;;;;;;;2.90;2.70;;;26.30;64.30;;;;;;4962696;28;20045;-82
2022/06/13 11:04:06;;;;;;;3.38;2.85;;;26.30;64.00;;;;;;4949757;28;20109;-82
2022/06/13 11:06:34;;;;;;;5.15;2.80;;;26.30;65.10;;;;;;4979558;28;20035;-81
2022/06/13 11:09:02;;;;;;;4.30;2.90;;;26.30;65.10;;;;;;4963642;28;20030;-84
2022/06/13 11:11:39;;;;;;;4.97;2.78;;;26.30;65.00;;;;;;4963750;28;20078;-82
2022/06/13 11:14:23;;;;;;;3.97;2.85;;;26.30;65.60;;;;;;4982633;28;20414;-82
2022/06/13 11:22:39;;;;;;;6.72;2.88;;;26.30;64.80;;;;;;4966090;28;20035;-82
2022/06/13 11:25:26;;;;;;;4.72;2.50;;;26.20;64.00;;;;;;4947286;28;20118;-82
2022/06/13 11:28:07;;;;;;;3.60;2.47;;;26.20;63.70;;;;;;4963791;28;20498;-82
2022/06/13 11:30:36;;;;;;;2.33;2.20;;;26.20;63.20;;;;;;4964734;28;20027;-84
2022/06/13 11:33:23;;;;;;;3.40;2.67;;;26.20;62.80;;;;;;4965963;28;20101;-82
2022/06/13 11:35:58;;;;;;;6.07;2.60;;;26.20;62.80;;;;;;4964551;28;20062;-82
2022/06/13 11:38:27;;;;;;;4.70;2.85;;;26.20;62.10;;;;;;4965790;28;20031;-82
2022/06/13 11:41:04;;;;;;;6.30;2.85;;;26.20;61.90;;;;;;4962964;28;20038;-83
2022/06/13 11:43:44;;;;;;;3.92;2.63;;;26.20;61.20;;;;;;4965443;28;20042;-82
2022/06/13 11:46:36;;;;;;;2.67;2.38;;;26.20;61.00;;;;;;4933130;28;20042;-82
2022/06/13 11:49:29;;;;;;;6.35;2.42;;;26.20;60.20;;;;;;4946254;28;20086;-82
2022/06/13 11:51:56;;;;;;;2.83;2.25;;;26.20;60.20;;;;;;4981575;28;20154;-82
2022/06/13 11:54:31;;;;;;;2.47;2.28;;;26.20;60.20;;;;;;4962883;28;20579;-82
2022/06/13 11:57:15;;;;;;;3.22;2.22;;;26.20;59.30;;;;;;4966096;28;20482;-82
2022/06/13 11:59:56;;;;;;;3.08;2.20;;;26.20;58.20;;;;;;4963873;28;20035;-82
2022/06/13 12:02:44;;;;;;;4.50;2.03;;;26.20;58.20;;;;;;4947241;28;20042;-83
2022/06/13 12:05:19;;;;;;;5.65;2.00;;;26.10;58.30;;;;;;4963412;28;20038;-83
2022/06/13 12:08:14;;;;;;;6.43;2.03;;;26.10;58.20;;;;;;4979920;28;20055;-83
2022/06/13 12:10:52;;;;;;;2.65;2.10;;;26.10;58.20;;;;;;4978064;28;20097;-83
2022/06/13 12:13:20;;;;;;;4.43;2.45;;;26.00;58.20;;;;;;4950108;28;20070;-83
2022/06/13 12:15:55;;;;;;;2.55;2.20;;;26.00;57.80;;;;;;4966878;28;20045;-83
2022/06/13 12:18:37;;;;;;;4.78;2.40;;;26.00;57.70;;;;;;4964751;28;20035;-83
2022/06/13 12:21:20;;;;;;;2.78;1.98;;;26.00;58.00;;;;;;4979559;28;20521;-83
2022/06/13 12:23:53;;;;;;;3.25;2.20;;;26.00;57.80;;;;;;4979406;28;20066;-84
2022/06/13 12:26:26;;;;;;;3.90;2.03;;;26.00;58.40;;;;;;4949666;28;20051;-83
2022/06/13 12:29:13;;;;;;;2.75;1.90;;;26.00;58.10;;;;;;4947147;28;20066;-83
2022/06/13 12:31:46;;;;;;;2.20;1.90;;;25.90;58.00;;;;;;4960563;28;20446;-83
2022/06/13 12:34:19;;;;;;;2.15;1.95;;;25.90;57.70;;;;;;4977549;28;20418;-83
2022/06/13 12:37:04;;;;;;;3.67;2.30;;;25.90;58.10;;;;;;4962583;28;20121;-84
2022/06/13 12:39:54;;;;;;;2.88;2.10;;;25.90;57.60;;;;;;4976626;28;20525;-83
2022/06/13 12:42:20;;;;;;;3.25;2.00;;;25.90;57.40;;;;;;4970618;28;20050;-84
2022/06/13 12:44:52;;;;;;;6.45;2.35;;;25.80;58.30;;;;;;4966354;28;20054;-83
2022/06/13 12:47:39;;;;;;;5.18;2.30;;;25.80;57.80;;;;;;4964183;28;20552;-83
2022/06/13 12:50:32;;;;;;;4.60;2.80;;;25.80;58.30;;;;;;4961369;28;20047;-83
2022/06/13 12:53:24;;;;;;;4.88;2.65;;;25.80;58.80;;;;;;4966064;28;20098;-83
2022/06/13 12:55:59;;;;;;;3.53;2.80;;;25.70;59.20;;;;;;4965531;28;20034;-83
2022/06/13 12:58:59;;;;;;;5.18;3.00;;;25.70;59.90;;;;;;4963450;28;20490;-84
2022/06/13 13:01:35;;;;;;;6.20;3.17;;;25.70;60.50;;;;;;4923863;29;20690;-83
2022/06/13 13:04:26;;;;;;;6.43;3.45;;;25.60;61.50;;;;;;4895087;29;20450;-83
2022/06/13 13:07:26;;;;;;;4.80;3.50;;;25.50;62.80;;;;;;4908390;29;20319;-82
2022/06/13 13:10:01;;;;;;;3.92;3.40;;;25.50;63.50;;;;;;4921613;29;20036;-82
2022/06/13 13:12:41;;;;;;;4.43;3.42;;;25.50;63.70;;;;;;4923081;29;20032;-82
2022/06/13 13:15:25;;;;;;;4.95;3.50;;;25.40;64.10;;;;;;4905506;29;20471;-83
2022/06/13 13:18:00;;;;;;;3.38;2.90;;;25.40;64.50;;;;;;4895268;29;20063;-83
2022/06/13 13:20:36;;;;;;;5.93;3.20;;;25.50;64.00;;;;;;4896654;29;20788;-82
2022/06/13 13:23:23;;;;;;;3.65;3.17;;;25.50;65.90;;;;;;4927413;29;20039;-85
2022/06/13 13:26:09;;;;;;;9.02;4.32;;;25.40;65.10;;;;;;4912465;29;20470;-84
2022/06/13 13:28:58;;;;;;;6.18;4.15;;;25.50;65.90;;;;;;4926538;29;20035;-85
2022/06/13 13:31:44;;;;;;;11.10;4.20;;;25.50;67.00;;;;;;4907882;29;20043;-82
2022/06/13 13:34:37;;;;;;;8.60;4.18;;;25.50;67.10;;;;;;4923231;29;20415;-84
2022/06/13 13:37:25;;;;;;;8.00;4.18;;;25.50;68.00;;;;;;4929792;28;20544;-82
2022/06/13 13:40:17;;;;;;;9.82;4.40;;;25.50;68.30;;;;;;4967374;28;20039;-83
2022/06/13 13:43:11;;;;;;;10.18;5.00;;;25.50;68.90;;;;;;4965344;28;20046;-84
2022/06/13 13:45:46;;;;;;;10.10;4.40;;;25.40;68.90;;;;;;4946621;28;20533;-83